sensor_id;sensor_type;location;lat;lon;timestamp;pressure;altitude;pressure_sealevel;temperature;humidity
60646;BME280;46462;32.608;-117.032;2023-02-04T00:01:39;99970.39;;;20.19;40.42
60646;BME280;46462;32.608;-117.032;2023-02-04T00:04:12;99967.23;;;20.32;40.67
60646;BME280;46462;32.608;-117.032;2023-02-04T00:06:40;99961.63;;;20.05;41.26
60646;BME280;46462;32.608;-117.032;2023-02-04T00:09:11;99957.69;;;19.97;41.51
60646;BME280;46462;32.608;-117.032;2023-02-04T00:11:42;99959.55;;;19.92;41.73
60646;BME280;46462;32.608;-117.032;2023-02-04T00:14:13;99960.16;;;19.90;42.16
60646;BME280;46462;32.608;-117.032;2023-02-04T00:16:43;99959.13;;;19.84;42.25
60646;BME280;46462;32.608;-117.032;2023-02-04T00:19:14;99960.76;;;19.85;42.41
60646;BME280;46462;32.608;-117.032;2023-02-04T00:21:45;99964.01;;;19.79;42.60
60646;BME280;46462;32.608;-117.032;2023-02-04T00:24:15;99965.62;;;19.63;42.75
60646;BME280;46462;32.608;-117.032;2023-02-04T00:26:46;99966.13;;;19.80;42.42
60646;BME280;46462;32.608;-117.032;2023-02-04T00:29:17;99960.78;;;19.73;42.85
60646;BME280;46462;32.608;-117.032;2023-02-04T00:31:48;99942.85;;;20.71;40.92
60646;BME280;46462;32.608;-117.032;2023-02-04T00:34:18;99942.79;;;22.22;37.31
60646;BME280;46462;32.608;-117.032;2023-02-04T00:36:49;99945.43;;;23.22;35.03
60646;BME280;46462;32.608;-117.032;2023-02-04T00:39:20;99947.04;;;23.88;33.59
60646;BME280;46462;32.608;-117.032;2023-02-04T00:41:50;99948.99;;;24.52;32.40
60646;BME280;46462;32.608;-117.032;2023-02-04T00:44:21;99955.34;;;24.86;31.69
60646;BME280;46462;32.608;-117.032;2023-02-04T00:46:52;99963.26;;;24.97;31.62
60646;BME280;46462;32.608;-117.032;2023-02-04T00:49:23;99968.21;;;24.99;31.50
60646;BME280;46462;32.608;-117.032;2023-02-04T00:51:54;99975.81;;;25.02;31.54
60646;BME280;46462;32.608;-117.032;2023-02-04T00:54:24;99984.16;;;25.04;31.49
60646;BME280;46462;32.608;-117.032;2023-02-04T00:56:55;99987.80;;;25.16;31.42
60646;BME280;46462;32.608;-117.032;2023-02-04T00:59:26;99988.44;;;25.13;31.38
60646;BME280;46462;32.608;-117.032;2023-02-04T01:01:56;99985.25;;;25.23;31.03
60646;BME280;46462;32.608;-117.032;2023-02-04T01:04:27;99984.65;;;25.09;31.42
60646;BME280;46462;32.608;-117.032;2023-02-04T01:06:58;99979.72;;;25.04;31.55
60646;BME280;46462;32.608;-117.032;2023-02-04T01:09:29;99982.42;;;24.95;31.57
60646;BME280;46462;32.608;-117.032;2023-02-04T01:11:59;99984.34;;;24.95;31.49
60646;BME280;46462;32.608;-117.032;2023-02-04T01:14:30;99985.99;;;25.07;31.29
60646;BME280;46462;32.608;-117.032;2023-02-04T01:17:01;99986.28;;;25.07;31.59
60646;BME280;46462;32.608;-117.032;2023-02-04T01:19:31;99987.68;;;25.18;31.16
60646;BME280;46462;32.608;-117.032;2023-02-04T01:22:02;99988.91;;;25.15;31.06
60646;BME280;46462;32.608;-117.032;2023-02-04T01:24:33;99988.78;;;25.24;31.11
60646;BME280;46462;32.608;-117.032;2023-02-04T01:27:04;99980.67;;;25.15;31.20
60646;BME280;46462;32.608;-117.032;2023-02-04T01:29:35;99974.71;;;25.24;31.05
60646;BME280;46462;32.608;-117.032;2023-02-04T01:32:05;99968.78;;;25.26;31.02
60646;BME280;46462;32.608;-117.032;2023-02-04T01:34:36;99962.08;;;25.26;31.05
60646;BME280;46462;32.608;-117.032;2023-02-04T01:37:07;99957.02;;;25.25;31.08
60646;BME280;46462;32.608;-117.032;2023-02-04T01:39:37;99952.17;;;25.25;31.10
60646;BME280;46462;32.608;-117.032;2023-02-04T01:42:08;99949.94;;;25.26;31.03
60646;BME280;46462;32.608;-117.032;2023-02-04T01:44:39;99951.72;;;25.25;31.09
60646;BME280;46462;32.608;-117.032;2023-02-04T01:47:10;99952.94;;;25.22;31.20
60646;BME280;46462;32.608;-117.032;2023-02-04T01:49:40;99947.32;;;25.21;31.17
60646;BME280;46462;32.608;-117.032;2023-02-04T01:52:12;99943.12;;;25.20;31.19
60646;BME280;46462;32.608;-117.032;2023-02-04T01:54:42;99943.32;;;25.17;31.40
60646;BME280;46462;32.608;-117.032;2023-02-04T01:57:15;99937.20;;;25.13;31.44
60646;BME280;46462;32.608;-117.032;2023-02-04T01:59:45;99939.37;;;25.11;31.59
60646;BME280;46462;32.608;-117.032;2023-02-04T02:04:44;99936.41;;;25.10;31.45
60646;BME280;46462;32.608;-117.032;2023-02-04T02:07:15;99933.21;;;25.06;31.86
60646;BME280;46462;32.608;-117.032;2023-02-04T02:09:46;99931.71;;;25.01;31.85
60646;BME280;46462;32.608;-117.032;2023-02-04T02:12:16;99929.72;;;25.01;32.09
60646;BME280;46462;32.608;-117.032;2023-02-04T02:14:47;99929.26;;;25.00;32.03
60646;BME280;46462;32.608;-117.032;2023-02-04T02:17:18;99935.43;;;25.00;31.96
60646;BME280;46462;32.608;-117.032;2023-02-04T02:19:49;99934.13;;;24.97;32.10
60646;BME280;46462;32.608;-117.032;2023-02-04T02:22:24;99932.41;;;24.96;32.02
60646;BME280;46462;32.608;-117.032;2023-02-04T02:24:50;99934.51;;;24.94;32.21
60646;BME280;46462;32.608;-117.032;2023-02-04T02:27:21;99933.59;;;24.95;32.05
60646;BME280;46462;32.608;-117.032;2023-02-04T02:29:51;99934.95;;;24.92;32.21
60646;BME280;46462;32.608;-117.032;2023-02-04T02:32:22;99936.72;;;24.89;32.15
60646;BME280;46462;32.608;-117.032;2023-02-04T02:34:53;99939.02;;;24.89;32.22
60646;BME280;46462;32.608;-117.032;2023-02-04T02:37:24;99934.00;;;24.89;32.32
60646;BME280;46462;32.608;-117.032;2023-02-04T02:39:55;99930.31;;;24.86;32.03
60646;BME280;46462;32.608;-117.032;2023-02-04T02:42:25;99931.58;;;24.87;32.14
60646;BME280;46462;32.608;-117.032;2023-02-04T02:44:56;99941.28;;;24.82;32.37
60646;BME280;46462;32.608;-117.032;2023-02-04T02:47:26;99954.31;;;24.83;32.26
60646;BME280;46462;32.608;-117.032;2023-02-04T02:49:57;99959.33;;;24.79;32.38
60646;BME280;46462;32.608;-117.032;2023-02-04T02:52:28;99964.00;;;24.77;32.39
60646;BME280;46462;32.608;-117.032;2023-02-04T02:54:59;99967.35;;;24.75;32.54
60646;BME280;46462;32.608;-117.032;2023-02-04T02:57:29;99964.84;;;24.76;32.48
60646;BME280;46462;32.608;-117.032;2023-02-04T03:00:00;99958.76;;;24.73;32.73
60646;BME280;46462;32.608;-117.032;2023-02-04T03:02:31;99960.39;;;24.70;32.73
60646;BME280;46462;32.608;-117.032;2023-02-04T03:05:01;99958.94;;;24.67;32.84
60646;BME280;46462;32.608;-117.032;2023-02-04T03:07:32;99950.86;;;24.66;32.81
60646;BME280;46462;32.608;-117.032;2023-02-04T03:10:07;99944.77;;;24.64;32.96
60646;BME280;46462;32.608;-117.032;2023-02-04T03:12:38;99949.54;;;24.64;32.88
60646;BME280;46462;32.608;-117.032;2023-02-04T03:15:09;99956.60;;;24.61;32.92
60646;BME280;46462;32.608;-117.032;2023-02-04T03:17:40;99957.43;;;24.58;33.14
60646;BME280;46462;32.608;-117.032;2023-02-04T03:20:11;99958.89;;;24.60;32.90
60646;BME280;46462;32.608;-117.032;2023-02-04T03:22:41;99955.87;;;24.58;33.04
60646;BME280;46462;32.608;-117.032;2023-02-04T03:25:11;99957.92;;;24.56;33.04
60646;BME280;46462;32.608;-117.032;2023-02-04T03:27:42;99964.07;;;24.57;32.99
60646;BME280;46462;32.608;-117.032;2023-02-04T03:30:13;99968.24;;;24.53;33.21
60646;BME280;46462;32.608;-117.032;2023-02-04T03:32:43;99964.37;;;24.57;32.98
60646;BME280;46462;32.608;-117.032;2023-02-04T03:35:14;99958.73;;;24.52;33.10
60646;BME280;46462;32.608;-117.032;2023-02-04T03:37:45;99960.63;;;24.55;33.03
60646;BME280;46462;32.608;-117.032;2023-02-04T03:40:16;99970.20;;;24.52;33.07
60646;BME280;46462;32.608;-117.032;2023-02-04T03:42:46;99982.22;;;24.53;33.07
60646;BME280;46462;32.608;-117.032;2023-02-04T03:45:17;99991.78;;;24.51;33.03
60646;BME280;46462;32.608;-117.032;2023-02-04T03:47:48;100003.40;;;24.54;32.99
60646;BME280;46462;32.608;-117.032;2023-02-04T03:50:19;100004.48;;;24.53;32.98
60646;BME280;46462;32.608;-117.032;2023-02-04T03:52:49;99999.99;;;24.51;33.01
60646;BME280;46462;32.608;-117.032;2023-02-04T03:55:20;99996.87;;;24.46;33.07
60646;BME280;46462;32.608;-117.032;2023-02-04T03:57:51;99990.08;;;24.44;33.09
60646;BME280;46462;32.608;-117.032;2023-02-04T04:00:22;99992.30;;;24.44;33.10
60646;BME280;46462;32.608;-117.032;2023-02-04T04:02:52;100002.61;;;24.43;33.15
60646;BME280;46462;32.608;-117.032;2023-02-04T04:05:23;100011.95;;;24.42;33.13
60646;BME280;46462;32.608;-117.032;2023-02-04T04:07:54;100012.83;;;24.42;33.04
60646;BME280;46462;32.608;-117.032;2023-02-04T04:10:25;100017.87;;;24.33;33.26
60646;BME280;46462;32.608;-117.032;2023-02-04T04:12:56;100023.23;;;24.28;33.30
60646;BME280;46462;32.608;-117.032;2023-02-04T04:15:26;100022.81;;;24.30;33.16
60646;BME280;46462;32.608;-117.032;2023-02-04T04:17:57;100025.86;;;24.33;33.24
60646;BME280;46462;32.608;-117.032;2023-02-04T04:20:27;100032.83;;;24.27;33.29
60646;BME280;46462;32.608;-117.032;2023-02-04T04:22:58;100037.11;;;24.25;33.27
60646;BME280;46462;32.608;-117.032;2023-02-04T04:25:29;100044.24;;;24.17;33.48
60646;BME280;46462;32.608;-117.032;2023-02-04T04:28:00;100043.37;;;24.18;33.46
60646;BME280;46462;32.608;-117.032;2023-02-04T04:30:30;100050.18;;;24.20;33.47
60646;BME280;46462;32.608;-117.032;2023-02-04T04:33:01;100054.79;;;24.21;33.45
60646;BME280;46462;32.608;-117.032;2023-02-04T04:35:32;100050.44;;;24.17;33.38
60646;BME280;46462;32.608;-117.032;2023-02-04T04:38:03;100053.67;;;24.12;33.46
60646;BME280;46462;32.608;-117.032;2023-02-04T04:40:33;100056.27;;;24.17;33.42
60646;BME280;46462;32.608;-117.032;2023-02-04T04:43:04;100053.46;;;24.07;33.50
60646;BME280;46462;32.608;-117.032;2023-02-04T04:45:35;100048.76;;;24.03;33.56
60646;BME280;46462;32.608;-117.032;2023-02-04T04:48:05;100057.40;;;23.97;33.68
60646;BME280;46462;32.608;-117.032;2023-02-04T04:50:36;100057.93;;;23.92;33.80
60646;BME280;46462;32.608;-117.032;2023-02-04T04:53:07;100058.58;;;23.93;33.79
60646;BME280;46462;32.608;-117.032;2023-02-04T04:55:38;100064.23;;;23.92;33.84
60646;BME280;46462;32.608;-117.032;2023-02-04T04:58:08;100058.86;;;23.92;33.76
60646;BME280;46462;32.608;-117.032;2023-02-04T05:00:39;100060.75;;;23.89;33.81
60646;BME280;46462;32.608;-117.032;2023-02-04T05:03:10;100057.80;;;23.92;33.87
60646;BME280;46462;32.608;-117.032;2023-02-04T05:05:40;100059.08;;;23.88;33.85
60646;BME280;46462;32.608;-117.032;2023-02-04T05:08:11;100057.26;;;23.91;33.84
60646;BME280;46462;32.608;-117.032;2023-02-04T05:10:42;100058.04;;;23.89;33.75
60646;BME280;46462;32.608;-117.032;2023-02-04T05:13:13;100057.08;;;23.85;33.87
60646;BME280;46462;32.608;-117.032;2023-02-04T05:15:43;100058.64;;;23.82;33.89
60646;BME280;46462;32.608;-117.032;2023-02-04T05:18:14;100062.44;;;23.85;33.91
60646;BME280;46462;32.608;-117.032;2023-02-04T05:20:45;100069.03;;;23.86;33.90
60646;BME280;46462;32.608;-117.032;2023-02-04T05:23:15;100069.90;;;23.82;33.96
60646;BME280;46462;32.608;-117.032;2023-02-04T05:25:46;100075.54;;;23.78;34.13
60646;BME280;46462;32.608;-117.032;2023-02-04T05:28:17;100068.88;;;23.78;34.02
60646;BME280;46462;32.608;-117.032;2023-02-04T05:30:48;100066.03;;;23.77;33.99
60646;BME280;46462;32.608;-117.032;2023-02-04T05:33:19;100065.13;;;23.72;34.01
60646;BME280;46462;32.608;-117.032;2023-02-04T05:35:49;100068.56;;;23.68;34.13
60646;BME280;46462;32.608;-117.032;2023-02-04T05:38:20;100072.14;;;23.65;34.10
60646;BME280;46462;32.608;-117.032;2023-02-04T05:40:50;100069.21;;;23.61;34.07
60646;BME280;46462;32.608;-117.032;2023-02-04T05:43:21;100065.25;;;23.49;34.46
60646;BME280;46462;32.608;-117.032;2023-02-04T05:45:52;100065.66;;;23.46;34.48
60646;BME280;46462;32.608;-117.032;2023-02-04T05:48:23;100065.67;;;23.40;34.66
60646;BME280;46462;32.608;-117.032;2023-02-04T05:50:54;100063.67;;;23.44;34.43
60646;BME280;46462;32.608;-117.032;2023-02-04T05:53:25;100064.19;;;23.36;34.51
60646;BME280;46462;32.608;-117.032;2023-02-04T05:55:55;100067.56;;;23.38;34.48
60646;BME280;46462;32.608;-117.032;2023-02-04T05:58:26;100072.45;;;23.29;34.70
60646;BME280;46462;32.608;-117.032;2023-02-04T06:00:57;100069.14;;;23.17;34.97
60646;BME280;46462;32.608;-117.032;2023-02-04T06:03:27;100070.89;;;23.18;34.84
60646;BME280;46462;32.608;-117.032;2023-02-04T06:05:58;100069.79;;;23.20;34.70
60646;BME280;46462;32.608;-117.032;2023-02-04T06:08:29;100070.15;;;23.16;34.91
60646;BME280;46462;32.608;-117.032;2023-02-04T06:11:00;100068.08;;;23.05;35.20
60646;BME280;46462;32.608;-117.032;2023-02-04T06:13:30;100063.29;;;23.01;35.23
60646;BME280;46462;32.608;-117.032;2023-02-04T06:16:01;100058.76;;;22.98;35.11
60646;BME280;46462;32.608;-117.032;2023-02-04T06:18:32;100061.48;;;22.92;35.35
60646;BME280;46462;32.608;-117.032;2023-02-04T06:21:03;100062.27;;;22.88;35.38
60646;BME280;46462;32.608;-117.032;2023-02-04T06:23:33;100066.98;;;22.91;35.36
60646;BME280;46462;32.608;-117.032;2023-02-04T06:26:05;100066.99;;;23.02;35.06
60646;BME280;46462;32.608;-117.032;2023-02-04T06:28:35;100064.61;;;22.99;35.13
60646;BME280;46462;32.608;-117.032;2023-02-04T06:31:06;100068.47;;;22.85;35.46
60646;BME280;46462;32.608;-117.032;2023-02-04T06:33:37;100070.70;;;22.74;35.72
60646;BME280;46462;32.608;-117.032;2023-02-04T06:36:07;100073.70;;;22.70;35.76
60646;BME280;46462;32.608;-117.032;2023-02-04T06:38:38;100074.65;;;22.64;35.78
60646;BME280;46462;32.608;-117.032;2023-02-04T06:41:09;100073.61;;;22.69;35.74
60646;BME280;46462;32.608;-117.032;2023-02-04T06:43:39;100072.13;;;22.69;35.53
60646;BME280;46462;32.608;-117.032;2023-02-04T06:46:10;100064.95;;;22.66;35.61
60646;BME280;46462;32.608;-117.032;2023-02-04T06:48:41;100066.88;;;22.66;35.45
60646;BME280;46462;32.608;-117.032;2023-02-04T06:51:11;100064.48;;;22.57;35.70
60646;BME280;46462;32.608;-117.032;2023-02-04T06:53:42;100061.35;;;22.59;35.53
60646;BME280;46462;32.608;-117.032;2023-02-04T06:56:13;100060.22;;;22.63;35.39
60646;BME280;46462;32.608;-117.032;2023-02-04T06:58:44;100056.27;;;22.51;35.56
60646;BME280;46462;32.608;-117.032;2023-02-04T07:01:15;100055.33;;;22.46;35.58
60646;BME280;46462;32.608;-117.032;2023-02-04T07:03:45;100057.01;;;22.46;35.55
60646;BME280;46462;32.608;-117.032;2023-02-04T07:06:16;100054.23;;;22.62;35.26
60646;BME280;46462;32.608;-117.032;2023-02-04T07:08:47;100053.19;;;22.54;35.42
60646;BME280;46462;32.608;-117.032;2023-02-04T07:11:18;100052.63;;;22.47;35.45
60646;BME280;46462;32.608;-117.032;2023-02-04T07:13:48;100054.20;;;22.42;35.53
60646;BME280;46462;32.608;-117.032;2023-02-04T07:16:20;100055.86;;;22.52;35.30
60646;BME280;46462;32.608;-117.032;2023-02-04T07:18:50;100057.18;;;22.62;34.95
60646;BME280;46462;32.608;-117.032;2023-02-04T07:21:21;100054.65;;;22.69;34.71
60646;BME280;46462;32.608;-117.032;2023-02-04T07:23:52;100052.41;;;22.54;35.03
60646;BME280;46462;32.608;-117.032;2023-02-04T07:26:22;100056.78;;;22.59;34.79
60646;BME280;46462;32.608;-117.032;2023-02-04T07:28:53;100061.55;;;22.58;34.83
60646;BME280;46462;32.608;-117.032;2023-02-04T07:31:24;100061.53;;;22.48;34.88
60646;BME280;46462;32.608;-117.032;2023-02-04T07:33:55;100065.61;;;22.39;35.03
60646;BME280;46462;32.608;-117.032;2023-02-04T07:36:26;100068.88;;;22.20;35.44
60646;BME280;46462;32.608;-117.032;2023-02-04T07:38:56;100066.65;;;22.46;34.89
60646;BME280;46462;32.608;-117.032;2023-02-04T07:41:27;100068.13;;;22.22;35.38
60646;BME280;46462;32.608;-117.032;2023-02-04T07:43:58;100063.59;;;22.36;35.21
60646;BME280;46462;32.608;-117.032;2023-02-04T07:46:29;100067.73;;;22.26;35.35
60646;BME280;46462;32.608;-117.032;2023-02-04T07:48:59;100070.54;;;22.21;35.33
60646;BME280;46462;32.608;-117.032;2023-02-04T07:51:30;100070.49;;;22.16;35.36
60646;BME280;46462;32.608;-117.032;2023-02-04T07:54:01;100064.81;;;22.07;35.63
60646;BME280;46462;32.608;-117.032;2023-02-04T07:56:32;100065.92;;;22.21;35.16
60646;BME280;46462;32.608;-117.032;2023-02-04T07:59:02;100063.38;;;22.09;35.39
60646;BME280;46462;32.608;-117.032;2023-02-04T08:01:33;100058.79;;;22.01;35.39
60646;BME280;46462;32.608;-117.032;2023-02-04T08:04:04;100057.54;;;21.86;36.03
60646;BME280;46462;32.608;-117.032;2023-02-04T08:06:35;100057.00;;;21.89;35.80
60646;BME280;46462;32.608;-117.032;2023-02-04T08:09:05;100055.77;;;21.98;35.73
60646;BME280;46462;32.608;-117.032;2023-02-04T08:11:36;100057.39;;;21.94;35.75
60646;BME280;46462;32.608;-117.032;2023-02-04T08:14:07;100055.78;;;22.12;35.45
60646;BME280;46462;32.608;-117.032;2023-02-04T08:16:38;100054.98;;;21.97;35.53
60646;BME280;46462;32.608;-117.032;2023-02-04T08:19:08;100051.69;;;22.01;35.21
60646;BME280;46462;32.608;-117.032;2023-02-04T08:21:39;100049.51;;;21.90;35.40
60646;BME280;46462;32.608;-117.032;2023-02-04T08:24:10;100043.13;;;21.95;35.60
60646;BME280;46462;32.608;-117.032;2023-02-04T08:26:42;100038.48;;;22.20;34.85
60646;BME280;46462;32.608;-117.032;2023-02-04T08:29:11;100033.43;;;22.01;35.09
60646;BME280;46462;32.608;-117.032;2023-02-04T08:31:42;100028.30;;;21.79;35.59
60646;BME280;46462;32.608;-117.032;2023-02-04T08:34:13;100027.00;;;21.83;35.43
60646;BME280;46462;32.608;-117.032;2023-02-04T08:36:44;100026.41;;;21.96;35.16
60646;BME280;46462;32.608;-117.032;2023-02-04T08:39:15;100025.54;;;21.70;35.64
60646;BME280;46462;32.608;-117.032;2023-02-04T08:41:45;100020.44;;;21.64;35.70
60646;BME280;46462;32.608;-117.032;2023-02-04T08:44:16;100016.76;;;21.70;35.72
60646;BME280;46462;32.608;-117.032;2023-02-04T08:46:47;100019.97;;;21.73;35.55
60646;BME280;46462;32.608;-117.032;2023-02-04T08:49:18;100017.75;;;21.79;35.52
60646;BME280;46462;32.608;-117.032;2023-02-04T08:51:49;100016.28;;;21.96;35.17
60646;BME280;46462;32.608;-117.032;2023-02-04T08:54:20;100011.60;;;21.71;35.42
60646;BME280;46462;32.608;-117.032;2023-02-04T08:56:50;100008.87;;;21.90;35.17
60646;BME280;46462;32.608;-117.032;2023-02-04T08:59:21;100009.54;;;21.89;35.01
60646;BME280;46462;32.608;-117.032;2023-02-04T09:01:52;100006.10;;;21.76;35.36
60646;BME280;46462;32.608;-117.032;2023-02-04T09:04:23;100001.19;;;21.76;35.37
60646;BME280;46462;32.608;-117.032;2023-02-04T09:06:53;99992.51;;;21.61;35.51
60646;BME280;46462;32.608;-117.032;2023-02-04T09:09:24;99989.34;;;21.49;35.58
60646;BME280;46462;32.608;-117.032;2023-02-04T09:11:55;99988.95;;;21.66;35.30
60646;BME280;46462;32.608;-117.032;2023-02-04T09:14:26;99988.20;;;21.63;35.21
60646;BME280;46462;32.608;-117.032;2023-02-04T09:16:57;99981.97;;;21.87;34.81
60646;BME280;46462;32.608;-117.032;2023-02-04T09:19:27;99978.03;;;21.83;34.76
60646;BME280;46462;32.608;-117.032;2023-02-04T09:21:58;99972.51;;;21.81;34.77
60646;BME280;46462;32.608;-117.032;2023-02-04T09:24:29;99972.53;;;21.67;35.05
60646;BME280;46462;32.608;-117.032;2023-02-04T09:27:00;99968.88;;;21.57;34.91
60646;BME280;46462;32.608;-117.032;2023-02-04T09:29:31;99965.74;;;21.42;35.38
60646;BME280;46462;32.608;-117.032;2023-02-04T09:32:02;99962.93;;;21.17;35.89
60646;BME280;46462;32.608;-117.032;2023-02-04T09:34:32;99962.09;;;21.36;35.54
60646;BME280;46462;32.608;-117.032;2023-02-04T09:37:03;99961.68;;;21.51;35.04
60646;BME280;46462;32.608;-117.032;2023-02-04T09:39:34;99957.69;;;21.21;35.54
60646;BME280;46462;32.608;-117.032;2023-02-04T09:42:05;99951.74;;;21.19;35.58
60646;BME280;46462;32.608;-117.032;2023-02-04T09:44:35;99947.79;;;21.21;35.57
60646;BME280;46462;32.608;-117.032;2023-02-04T09:47:08;99952.58;;;21.41;35.16
60646;BME280;46462;32.608;-117.032;2023-02-04T09:49:37;99950.62;;;21.40;35.03
60646;BME280;46462;32.608;-117.032;2023-02-04T09:52:10;99949.95;;;21.26;35.20
60646;BME280;46462;32.608;-117.032;2023-02-04T09:54:39;99950.20;;;21.03;35.75
60646;BME280;46462;32.608;-117.032;2023-02-04T09:57:14;99948.01;;;20.96;35.90
60646;BME280;46462;32.608;-117.032;2023-02-04T09:59:40;99948.60;;;21.07;35.64
60646;BME280;46462;32.608;-117.032;2023-02-04T10:02:20;99948.40;;;20.92;35.84
60646;BME280;46462;32.608;-117.032;2023-02-04T10:04:41;99948.08;;;21.06;35.64
60646;BME280;46462;32.608;-117.032;2023-02-04T10:07:13;99946.63;;;21.05;35.42
60646;BME280;46462;32.608;-117.032;2023-02-04T10:09:43;99946.00;;;21.08;35.44
60646;BME280;46462;32.608;-117.032;2023-02-04T10:12:14;99942.92;;;21.06;35.20
60646;BME280;46462;32.608;-117.032;2023-02-04T10:14:45;99936.87;;;20.80;35.69
60646;BME280;46462;32.608;-117.032;2023-02-04T10:17:19;99932.71;;;20.60;36.28
60646;BME280;46462;32.608;-117.032;2023-02-04T10:19:46;99931.55;;;20.69;35.88
60646;BME280;46462;32.608;-117.032;2023-02-04T10:22:19;99929.23;;;20.49;36.26
60646;BME280;46462;32.608;-117.032;2023-02-04T10:24:48;99927.96;;;20.57;35.90
60646;BME280;46462;32.608;-117.032;2023-02-04T10:27:19;99925.34;;;20.78;35.54
60646;BME280;46462;32.608;-117.032;2023-02-04T10:29:55;99923.98;;;20.85;35.66
60646;BME280;46462;32.608;-117.032;2023-02-04T10:32:26;99923.87;;;20.74;35.68
60646;BME280;46462;32.608;-117.032;2023-02-04T10:34:57;99926.74;;;20.54;35.65
60646;BME280;46462;32.608;-117.032;2023-02-04T10:37:22;99930.36;;;20.37;36.32
60646;BME280;46462;32.608;-117.032;2023-02-04T10:39:53;99932.01;;;20.59;35.63
60646;BME280;46462;32.608;-117.032;2023-02-04T10:42:25;99925.84;;;20.92;34.89
60646;BME280;46462;32.608;-117.032;2023-02-04T10:44:55;99923.45;;;20.88;35.18
60646;BME280;46462;32.608;-117.032;2023-02-04T10:47:27;99917.76;;;20.96;34.76
60646;BME280;46462;32.608;-117.032;2023-02-04T10:49:59;99916.54;;;20.81;34.88
60646;BME280;46462;32.608;-117.032;2023-02-04T10:52:33;99915.27;;;20.53;35.97
60646;BME280;46462;32.608;-117.032;2023-02-04T10:54:58;99914.36;;;20.36;35.93
60646;BME280;46462;32.608;-117.032;2023-02-04T10:57:29;99915.72;;;20.42;36.01
60646;BME280;46462;32.608;-117.032;2023-02-04T11:00:01;99914.57;;;20.39;35.92
60646;BME280;46462;32.608;-117.032;2023-02-04T11:02:35;99912.47;;;20.47;36.08
60646;BME280;46462;32.608;-117.032;2023-02-04T11:05:02;99912.60;;;20.40;35.93
60646;BME280;46462;32.608;-117.032;2023-02-04T11:07:32;99913.19;;;20.37;36.35
60646;BME280;46462;32.608;-117.032;2023-02-04T11:10:12;99915.58;;;20.33;35.95
60646;BME280;46462;32.608;-117.032;2023-02-04T11:12:39;99912.96;;;20.25;36.18
60646;BME280;46462;32.608;-117.032;2023-02-04T11:17:38;99913.27;;;20.28;36.00
60646;BME280;46462;32.608;-117.032;2023-02-04T11:20:13;99911.34;;;20.32;36.06
60646;BME280;46462;32.608;-117.032;2023-02-04T11:22:43;99908.45;;;20.25;35.83
60646;BME280;46462;32.608;-117.032;2023-02-04T11:27:41;99905.69;;;20.14;35.69
60646;BME280;46462;32.608;-117.032;2023-02-04T11:30:19;99903.39;;;20.04;36.19
60646;BME280;46462;32.608;-117.032;2023-02-04T11:32:43;99901.38;;;19.95;36.30
60646;BME280;46462;32.608;-117.032;2023-02-04T11:35:20;99902.88;;;19.97;35.89
60646;BME280;46462;32.608;-117.032;2023-02-04T11:37:44;99899.84;;;19.90;35.87
60646;BME280;46462;32.608;-117.032;2023-02-04T11:40:21;99900.49;;;19.84;35.74
60646;BME280;46462;32.608;-117.032;2023-02-04T11:42:47;99895.76;;;20.09;35.88
60646;BME280;46462;32.608;-117.032;2023-02-04T11:45:20;99891.33;;;19.87;36.55
60646;BME280;46462;32.608;-117.032;2023-02-04T11:47:48;99890.41;;;19.93;36.43
60646;BME280;46462;32.608;-117.032;2023-02-04T11:50:25;99890.70;;;19.97;36.02
60646;BME280;46462;32.608;-117.032;2023-02-04T11:52:49;99887.05;;;20.10;35.54
60646;BME280;46462;32.608;-117.032;2023-02-04T11:55:20;99885.36;;;19.79;36.34
60646;BME280;46462;32.608;-117.032;2023-02-04T11:57:52;99886.87;;;19.66;36.22
60646;BME280;46462;32.608;-117.032;2023-02-04T12:00:24;99885.37;;;20.00;35.79
60646;BME280;46462;32.608;-117.032;2023-02-04T12:02:57;99883.01;;;19.98;35.86
60646;BME280;46462;32.608;-117.032;2023-02-04T12:05:34;99881.29;;;19.76;36.31
60646;BME280;46462;32.608;-117.032;2023-02-04T12:07:54;99884.78;;;20.02;35.63
60646;BME280;46462;32.608;-117.032;2023-02-04T12:10:26;99882.15;;;19.99;35.84
60646;BME280;46462;32.608;-117.032;2023-02-04T12:12:56;99878.38;;;19.89;35.73
60646;BME280;46462;32.608;-117.032;2023-02-04T12:15:32;99879.49;;;19.76;35.63
60646;BME280;46462;32.608;-117.032;2023-02-04T12:18:03;99879.69;;;19.93;35.30
60646;BME280;46462;32.608;-117.032;2023-02-04T12:20:29;99879.50;;;19.82;35.75
60646;BME280;46462;32.608;-117.032;2023-02-04T12:22:59;99880.83;;;20.20;35.15
60646;BME280;46462;32.608;-117.032;2023-02-04T12:25:30;99879.73;;;19.77;35.78
60646;BME280;46462;32.608;-117.032;2023-02-04T12:28:01;99882.51;;;19.74;35.67
60646;BME280;46462;32.608;-117.032;2023-02-04T12:30:32;99883.15;;;19.59;36.14
60646;BME280;46462;32.608;-117.032;2023-02-04T12:33:03;99889.25;;;19.71;35.53
60646;BME280;46462;32.608;-117.032;2023-02-04T12:35:34;99886.41;;;19.63;35.72
60646;BME280;46462;32.608;-117.032;2023-02-04T12:38:04;99881.08;;;19.82;35.11
60646;BME280;46462;32.608;-117.032;2023-02-04T12:40:36;99889.52;;;19.71;35.79
60646;BME280;46462;32.608;-117.032;2023-02-04T12:43:06;99888.94;;;19.69;35.72
60646;BME280;46462;32.608;-117.032;2023-02-04T12:45:37;99890.74;;;19.54;35.74
60646;BME280;46462;32.608;-117.032;2023-02-04T12:48:08;99894.31;;;19.47;35.81
60646;BME280;46462;32.608;-117.032;2023-02-04T12:50:39;99895.90;;;19.45;35.90